sensor_id;sensor_type;location;lat;lon;timestamp;temperature;humidity
55083;DHT22;40978;52.850;6.506;2023-05-10T00:01:24;12.90;99.90
55083;DHT22;40978;52.850;6.506;2023-05-10T00:03:50;12.80;99.90
55083;DHT22;40978;52.850;6.506;2023-05-10T00:06:16;12.80;99.90
55083;DHT22;40978;52.850;6.506;2023-05-10T00:08:41;12.90;99.90
55083;DHT22;40978;52.850;6.506;2023-05-10T00:11:07;12.80;99.90
55083;DHT22;40978;52.850;6.506;2023-05-10T00:13:33;12.80;99.90
55083;DHT22;40978;52.850;6.506;2023-05-10T00:15:59;12.80;99.90
55083;DHT22;40978;52.850;6.506;2023-05-10T00:18:24;12.80;99.90
55083;DHT22;40978;52.850;6.506;2023-05-10T00:20:50;12.80;99.90
55083;DHT22;40978;52.850;6.506;2023-05-10T00:23:16;12.80;99.90
55083;DHT22;40978;52.850;6.506;2023-05-10T00:25:42;12.80;99.90
55083;DHT22;40978;52.850;6.506;2023-05-10T00:28:07;12.70;99.90
55083;DHT22;40978;52.850;6.506;2023-05-10T00:30:33;12.70;99.90
55083;DHT22;40978;52.850;6.506;2023-05-10T00:32:59;12.70;99.90
55083;DHT22;40978;52.850;6.506;2023-05-10T00:35:24;12.70;99.90
55083;DHT22;40978;52.850;6.506;2023-05-10T00:37:51;12.70;99.90
55083;DHT22;40978;52.850;6.506;2023-05-10T00:40:17;12.70;99.90
55083;DHT22;40978;52.850;6.506;2023-05-10T00:42:43;12.70;99.90
55083;DHT22;40978;52.850;6.506;2023-05-10T00:45:09;12.70;99.90
55083;DHT22;40978;52.850;6.506;2023-05-10T00:47:34;12.70;99.90
55083;DHT22;40978;52.850;6.506;2023-05-10T00:50:00;12.70;99.90
55083;DHT22;40978;52.850;6.506;2023-05-10T00:52:28;12.70;99.90
55083;DHT22;40978;52.850;6.506;2023-05-10T00:54:54;12.70;99.90
55083;DHT22;40978;52.850;6.506;2023-05-10T00:57:21;12.70;99.90
55083;DHT22;40978;52.850;6.506;2023-05-10T00:59:46;12.70;99.90
55083;DHT22;40978;52.850;6.506;2023-05-10T01:02:13;12.70;99.90
55083;DHT22;40978;52.850;6.506;2023-05-10T01:04:39;12.70;99.90
55083;DHT22;40978;52.850;6.506;2023-05-10T01:07:05;12.70;99.90
55083;DHT22;40978;52.850;6.506;2023-05-10T01:09:31;12.60;99.90
55083;DHT22;40978;52.850;6.506;2023-05-10T01:11:57;12.70;99.90
55083;DHT22;40978;52.850;6.506;2023-05-10T01:14:24;12.70;99.90
55083;DHT22;40978;52.850;6.506;2023-05-10T01:16:52;12.70;99.90
55083;DHT22;40978;52.850;6.506;2023-05-10T01:19:23;12.70;99.90
55083;DHT22;40978;52.850;6.506;2023-05-10T01:22:57;12.70;99.90
55083;DHT22;40978;52.850;6.506;2023-05-10T01:33:11;12.60;99.90
55083;DHT22;40978;52.850;6.506;2023-05-10T01:35:45;12.60;99.90
55083;DHT22;40978;52.850;6.506;2023-05-10T01:38:29;12.60;99.90
55083;DHT22;40978;52.850;6.506;2023-05-10T01:44:18;12.60;99.90
55083;DHT22;40978;52.850;6.506;2023-05-10T01:46:56;12.60;99.90
55083;DHT22;40978;52.850;6.506;2023-05-10T01:49:31;12.60;99.90
55083;DHT22;40978;52.850;6.506;2023-05-10T01:52:08;12.60;99.90
55083;DHT22;40978;52.850;6.506;2023-05-10T01:54:35;12.60;99.90
55083;DHT22;40978;52.850;6.506;2023-05-10T01:57:06;12.60;99.90
55083;DHT22;40978;52.850;6.506;2023-05-10T01:59:35;12.60;99.90
55083;DHT22;40978;52.850;6.506;2023-05-10T02:02:02;12.60;99.90
55083;DHT22;40978;52.850;6.506;2023-05-10T02:04:30;12.60;99.90
55083;DHT22;40978;52.850;6.506;2023-05-10T02:06:57;12.60;99.90
55083;DHT22;40978;52.850;6.506;2023-05-10T02:09:24;12.60;99.90
55083;DHT22;40978;52.850;6.506;2023-05-10T02:11:50;12.50;99.90
55083;DHT22;40978;52.850;6.506;2023-05-10T02:14:18;12.60;99.90
55083;DHT22;40978;52.850;6.506;2023-05-10T02:16:45;12.50;99.90
55083;DHT22;40978;52.850;6.506;2023-05-10T02:19:12;12.60;99.90
55083;DHT22;40978;52.850;6.506;2023-05-10T02:21:40;12.60;99.90
55083;DHT22;40978;52.850;6.506;2023-05-10T02:24:07;12.50;99.90
55083;DHT22;40978;52.850;6.506;2023-05-10T02:26:35;12.60;99.90
55083;DHT22;40978;52.850;6.506;2023-05-10T02:29:02;12.50;99.90
55083;DHT22;40978;52.850;6.506;2023-05-10T02:31:33;12.50;99.90
55083;DHT22;40978;52.850;6.506;2023-05-10T02:33:59;12.50;99.90
55083;DHT22;40978;52.850;6.506;2023-05-10T02:36:26;12.50;99.90
55083;DHT22;40978;52.850;6.506;2023-05-10T02:38:53;12.50;99.90
55083;DHT22;40978;52.850;6.506;2023-05-10T02:41:20;12.50;99.90
55083;DHT22;40978;52.850;6.506;2023-05-10T02:43:52;12.50;99.90
55083;DHT22;40978;52.850;6.506;2023-05-10T02:46:21;12.50;99.90
55083;DHT22;40978;52.850;6.506;2023-05-10T02:48:47;12.50;99.90
55083;DHT22;40978;52.850;6.506;2023-05-10T02:51:15;12.50;99.90
55083;DHT22;40978;52.850;6.506;2023-05-10T02:53:44;12.50;99.90
55083;DHT22;40978;52.850;6.506;2023-05-10T02:56:23;12.50;99.90
55083;DHT22;40978;52.850;6.506;2023-05-10T02:58:50;12.50;99.90
55083;DHT22;40978;52.850;6.506;2023-05-10T03:01:16;12.50;99.90
55083;DHT22;40978;52.850;6.506;2023-05-10T03:03:42;12.50;99.90
55083;DHT22;40978;52.850;6.506;2023-05-10T03:06:07;12.50;99.90
55083;DHT22;40978;52.850;6.506;2023-05-10T03:08:33;12.50;99.90
55083;DHT22;40978;52.850;6.506;2023-05-10T03:17:04;12.40;99.90
55083;DHT22;40978;52.850;6.506;2023-05-10T03:19:36;12.40;99.90
55083;DHT22;40978;52.850;6.506;2023-05-10T03:22:10;12.40;99.90
55083;DHT22;40978;52.850;6.506;2023-05-10T03:24:36;12.40;99.90
55083;DHT22;40978;52.850;6.506;2023-05-10T03:27:05;12.40;99.90
55083;DHT22;40978;52.850;6.506;2023-05-10T03:29:31;12.40;99.90
55083;DHT22;40978;52.850;6.506;2023-05-10T03:31:58;12.30;99.90
55083;DHT22;40978;52.850;6.506;2023-05-10T03:34:25;12.40;99.90
55083;DHT22;40978;52.850;6.506;2023-05-10T03:36:51;12.40;99.90
55083;DHT22;40978;52.850;6.506;2023-05-10T03:39:17;12.40;99.90
55083;DHT22;40978;52.850;6.506;2023-05-10T03:41:42;12.30;99.90
55083;DHT22;40978;52.850;6.506;2023-05-10T03:44:08;12.40;99.90
55083;DHT22;40978;52.850;6.506;2023-05-10T03:46:34;12.30;99.90
55083;DHT22;40978;52.850;6.506;2023-05-10T03:48:59;12.30;99.90
55083;DHT22;40978;52.850;6.506;2023-05-10T03:51:25;12.30;99.90
55083;DHT22;40978;52.850;6.506;2023-05-10T03:53:54;12.30;99.90
55083;DHT22;40978;52.850;6.506;2023-05-10T03:56:21;12.30;99.90
55083;DHT22;40978;52.850;6.506;2023-05-10T03:58:46;12.20;99.90
55083;DHT22;40978;52.850;6.506;2023-05-10T04:01:12;12.30;99.90
55083;DHT22;40978;52.850;6.506;2023-05-10T04:03:38;12.30;99.90
55083;DHT22;40978;52.850;6.506;2023-05-10T04:06:04;12.30;99.90
55083;DHT22;40978;52.850;6.506;2023-05-10T04:08:31;12.30;99.90
55083;DHT22;40978;52.850;6.506;2023-05-10T04:11:10;12.30;99.90
55083;DHT22;40978;52.850;6.506;2023-05-10T04:13:36;12.30;99.90
55083;DHT22;40978;52.850;6.506;2023-05-10T04:16:03;12.30;99.90
55083;DHT22;40978;52.850;6.506;2023-05-10T04:18:29;12.30;99.90
55083;DHT22;40978;52.850;6.506;2023-05-10T04:20:54;12.30;99.90
55083;DHT22;40978;52.850;6.506;2023-05-10T04:23:20;12.30;99.90
55083;DHT22;40978;52.850;6.506;2023-05-10T04:25:46;12.30;99.90
55083;DHT22;40978;52.850;6.506;2023-05-10T04:28:11;12.30;99.90
55083;DHT22;40978;52.850;6.506;2023-05-10T04:30:37;12.30;99.90
55083;DHT22;40978;52.850;6.506;2023-05-10T04:33:03;12.30;99.90
55083;DHT22;40978;52.850;6.506;2023-05-10T04:35:28;12.30;99.90
55083;DHT22;40978;52.850;6.506;2023-05-10T04:37:54;12.30;99.90
55083;DHT22;40978;52.850;6.506;2023-05-10T04:40:20;12.30;99.90
55083;DHT22;40978;52.850;6.506;2023-05-10T04:42:46;12.30;99.90
55083;DHT22;40978;52.850;6.506;2023-05-10T04:45:12;12.30;99.90
55083;DHT22;40978;52.850;6.506;2023-05-10T04:47:40;12.30;99.90
55083;DHT22;40978;52.850;6.506;2023-05-10T04:50:06;12.30;99.90
55083;DHT22;40978;52.850;6.506;2023-05-10T04:52:32;12.30;99.90
55083;DHT22;40978;52.850;6.506;2023-05-10T04:54:58;12.30;99.90
55083;DHT22;40978;52.850;6.506;2023-05-10T04:57:24;12.40;99.90
55083;DHT22;40978;52.850;6.506;2023-05-10T04:59:50;12.40;99.90
55083;DHT22;40978;52.850;6.506;2023-05-10T05:02:15;12.40;99.90
55083;DHT22;40978;52.850;6.506;2023-05-10T05:04:41;12.40;99.90
55083;DHT22;40978;52.850;6.506;2023-05-10T05:07:07;12.40;99.90
55083;DHT22;40978;52.850;6.506;2023-05-10T05:09:32;12.50;99.90
55083;DHT22;40978;52.850;6.506;2023-05-10T05:11:58;12.50;99.90
55083;DHT22;40978;52.850;6.506;2023-05-10T05:14:24;12.50;99.90
55083;DHT22;40978;52.850;6.506;2023-05-10T05:16:53;12.50;99.90
55083;DHT22;40978;52.850;6.506;2023-05-10T05:19:19;12.50;99.90
55083;DHT22;40978;52.850;6.506;2023-05-10T05:21:45;12.50;99.90
55083;DHT22;40978;52.850;6.506;2023-05-10T05:24:11;12.50;99.90
55083;DHT22;40978;52.850;6.506;2023-05-10T05:26:38;12.60;99.90
55083;DHT22;40978;52.850;6.506;2023-05-10T05:29:04;12.60;99.90
55083;DHT22;40978;52.850;6.506;2023-05-10T05:31:29;12.60;99.90
55083;DHT22;40978;52.850;6.506;2023-05-10T05:33:55;12.60;99.90
55083;DHT22;40978;52.850;6.506;2023-05-10T05:36:21;12.60;99.90
55083;DHT22;40978;52.850;6.506;2023-05-10T05:38:47;12.60;99.90
55083;DHT22;40978;52.850;6.506;2023-05-10T05:41:13;12.60;99.90
55083;DHT22;40978;52.850;6.506;2023-05-10T05:43:39;12.60;99.90
55083;DHT22;40978;52.850;6.506;2023-05-10T05:46:05;12.60;99.90
55083;DHT22;40978;52.850;6.506;2023-05-10T05:48:31;12.50;99.90
55083;DHT22;40978;52.850;6.506;2023-05-10T05:50:56;12.50;99.90
55083;DHT22;40978;52.850;6.506;2023-05-10T05:53:23;12.50;99.90
55083;DHT22;40978;52.850;6.506;2023-05-10T05:55:56;12.60;99.90
55083;DHT22;40978;52.850;6.506;2023-05-10T05:58:24;12.60;99.90
55083;DHT22;40978;52.850;6.506;2023-05-10T06:00:50;12.50;99.90
55083;DHT22;40978;52.850;6.506;2023-05-10T06:03:17;12.50;99.90
55083;DHT22;40978;52.850;6.506;2023-05-10T06:05:43;12.50;99.90
55083;DHT22;40978;52.850;6.506;2023-05-10T06:08:09;12.50;99.90
55083;DHT22;40978;52.850;6.506;2023-05-10T06:10:35;12.60;99.90
55083;DHT22;40978;52.850;6.506;2023-05-10T06:13:01;12.60;99.90
55083;DHT22;40978;52.850;6.506;2023-05-10T06:15:27;12.70;99.90
55083;DHT22;40978;52.850;6.506;2023-05-10T06:17:53;12.60;99.90
55083;DHT22;40978;52.850;6.506;2023-05-10T06:20:19;12.60;99.90
55083;DHT22;40978;52.850;6.506;2023-05-10T06:22:44;12.70;99.90
55083;DHT22;40978;52.850;6.506;2023-05-10T06:25:10;12.60;99.90
55083;DHT22;40978;52.850;6.506;2023-05-10T06:27:37;12.70;99.90
55083;DHT22;40978;52.850;6.506;2023-05-10T06:30:03;12.80;99.90
55083;DHT22;40978;52.850;6.506;2023-05-10T06:32:29;12.80;99.90
55083;DHT22;40978;52.850;6.506;2023-05-10T06:34:54;12.80;99.90
55083;DHT22;40978;52.850;6.506;2023-05-10T06:37:20;12.80;99.90
55083;DHT22;40978;52.850;6.506;2023-05-10T06:39:46;12.80;99.90
55083;DHT22;40978;52.850;6.506;2023-05-10T06:42:12;12.80;99.90
55083;DHT22;40978;52.850;6.506;2023-05-10T06:44:37;12.80;99.90
55083;DHT22;40978;52.850;6.506;2023-05-10T06:47:03;12.80;99.90
55083;DHT22;40978;52.850;6.506;2023-05-10T06:49:29;12.90;99.90
55083;DHT22;40978;52.850;6.506;2023-05-10T06:51:57;13.00;99.90
55083;DHT22;40978;52.850;6.506;2023-05-10T06:54:23;13.00;99.90
55083;DHT22;40978;52.850;6.506;2023-05-10T06:56:49;12.90;99.90
55083;DHT22;40978;52.850;6.506;2023-05-10T06:59:15;13.00;99.90
55083;DHT22;40978;52.850;6.506;2023-05-10T07:01:42;13.10;99.90
55083;DHT22;40978;52.850;6.506;2023-05-10T07:04:08;13.10;99.90
55083;DHT22;40978;52.850;6.506;2023-05-10T07:06:34;13.20;99.90
55083;DHT22;40978;52.850;6.506;2023-05-10T07:09:00;13.20;99.90
55083;DHT22;40978;52.850;6.506;2023-05-10T07:11:26;13.20;99.90
55083;DHT22;40978;52.850;6.506;2023-05-10T07:13:52;13.20;99.90
55083;DHT22;40978;52.850;6.506;2023-05-10T07:16:21;13.30;99.90
55083;DHT22;40978;52.850;6.506;2023-05-10T07:18:47;13.30;99.90
55083;DHT22;40978;52.850;6.506;2023-05-10T07:21:12;13.30;99.90
55083;DHT22;40978;52.850;6.506;2023-05-10T07:23:38;13.30;99.90
55083;DHT22;40978;52.850;6.506;2023-05-10T07:26:04;13.40;99.90
55083;DHT22;40978;52.850;6.506;2023-05-10T07:28:29;13.40;99.90
55083;DHT22;40978;52.850;6.506;2023-05-10T07:30:55;13.40;99.90
55083;DHT22;40978;52.850;6.506;2023-05-10T07:33:21;13.40;99.90
55083;DHT22;40978;52.850;6.506;2023-05-10T07:35:47;13.40;99.90
55083;DHT22;40978;52.850;6.506;2023-05-10T07:38:12;13.50;99.90
55083;DHT22;40978;52.850;6.506;2023-05-10T07:40:39;13.50;99.90
55083;DHT22;40978;52.850;6.506;2023-05-10T07:43:05;13.50;99.90
55083;DHT22;40978;52.850;6.506;2023-05-10T07:45:31;13.50;99.90
55083;DHT22;40978;52.850;6.506;2023-05-10T07:47:57;13.50;99.90
55083;DHT22;40978;52.850;6.506;2023-05-10T07:50:22;13.50;99.90
55083;DHT22;40978;52.850;6.506;2023-05-10T07:52:48;13.40;99.90
55083;DHT22;40978;52.850;6.506;2023-05-10T07:55:14;13.50;99.90
55083;DHT22;40978;52.850;6.506;2023-05-10T07:57:42;13.40;99.90
55083;DHT22;40978;52.850;6.506;2023-05-10T08:00:08;13.50;99.90
55083;DHT22;40978;52.850;6.506;2023-05-10T08:02:35;13.50;99.90
55083;DHT22;40978;52.850;6.506;2023-05-10T08:05:01;13.60;99.90
55083;DHT22;40978;52.850;6.506;2023-05-10T08:07:27;13.70;99.90
55083;DHT22;40978;52.850;6.506;2023-05-10T08:09:52;13.70;99.90
55083;DHT22;40978;52.850;6.506;2023-05-10T08:12:18;13.80;99.90
55083;DHT22;40978;52.850;6.506;2023-05-10T08:14:44;13.80;99.90
55083;DHT22;40978;52.850;6.506;2023-05-10T08:17:09;13.90;99.90
55083;DHT22;40978;52.850;6.506;2023-05-10T08:19:35;14.00;99.90
55083;DHT22;40978;52.850;6.506;2023-05-10T08:22:01;14.00;99.90
55083;DHT22;40978;52.850;6.506;2023-05-10T08:24:26;14.00;99.90
55083;DHT22;40978;52.850;6.506;2023-05-10T08:26:52;14.00;99.90
55083;DHT22;40978;52.850;6.506;2023-05-10T08:29:18;13.90;99.90
55083;DHT22;40978;52.850;6.506;2023-05-10T08:31:43;13.90;99.90
55083;DHT22;40978;52.850;6.506;2023-05-10T08:34:09;13.90;99.90
55083;DHT22;40978;52.850;6.506;2023-05-10T08:36:35;13.80;99.90
55083;DHT22;40978;52.850;6.506;2023-05-10T08:39:01;13.80;99.90
55083;DHT22;40978;52.850;6.506;2023-05-10T08:41:28;13.80;99.90
55083;DHT22;40978;52.850;6.506;2023-05-10T08:43:54;13.80;99.90
55083;DHT22;40978;52.850;6.506;2023-05-10T08:46:21;13.80;99.90
55083;DHT22;40978;52.850;6.506;2023-05-10T08:48:48;13.80;99.90
55083;DHT22;40978;52.850;6.506;2023-05-10T08:51:18;13.80;99.90
55083;DHT22;40978;52.850;6.506;2023-05-10T08:53:45;13.80;99.90
55083;DHT22;40978;52.850;6.506;2023-05-10T08:56:11;13.80;99.90
55083;DHT22;40978;52.850;6.506;2023-05-10T08:58:37;13.90;99.90
55083;DHT22;40978;52.850;6.506;2023-05-10T09:01:05;14.00;99.90
55083;DHT22;40978;52.850;6.506;2023-05-10T09:03:31;14.10;99.90
55083;DHT22;40978;52.850;6.506;2023-05-10T09:05:57;14.20;99.90
55083;DHT22;40978;52.850;6.506;2023-05-10T09:08:24;14.20;99.90
55083;DHT22;40978;52.850;6.506;2023-05-10T09:10:56;14.20;99.90
55083;DHT22;40978;52.850;6.506;2023-05-10T09:13:23;14.10;99.90
55083;DHT22;40978;52.850;6.506;2023-05-10T09:15:49;14.00;99.90
55083;DHT22;40978;52.850;6.506;2023-05-10T09:18:16;14.00;99.90
55083;DHT22;40978;52.850;6.506;2023-05-10T09:20:41;13.90;99.90
55083;DHT22;40978;52.850;6.506;2023-05-10T09:23:07;13.90;99.90
55083;DHT22;40978;52.850;6.506;2023-05-10T09:25:34;13.90;99.90
55083;DHT22;40978;52.850;6.506;2023-05-10T09:28:00;14.00;99.90
55083;DHT22;40978;52.850;6.506;2023-05-10T09:30:28;14.10;99.90
55083;DHT22;40978;52.850;6.506;2023-05-10T09:32:55;14.20;99.90
55083;DHT22;40978;52.850;6.506;2023-05-10T09:35:24;14.30;99.90
55083;DHT22;40978;52.850;6.506;2023-05-10T09:37:54;14.40;99.90
55083;DHT22;40978;52.850;6.506;2023-05-10T09:40:25;14.60;99.90
55083;DHT22;40978;52.850;6.506;2023-05-10T09:43:03;14.80;99.90
55083;DHT22;40978;52.850;6.506;2023-05-10T09:45:31;14.90;99.90
55083;DHT22;40978;52.850;6.506;2023-05-10T09:47:57;15.00;99.90
55083;DHT22;40978;52.850;6.506;2023-05-10T09:50:25;15.10;99.90
55083;DHT22;40978;52.850;6.506;2023-05-10T09:55:38;15.30;99.90
55083;DHT22;40978;52.850;6.506;2023-05-10T09:58:04;15.20;99.90
55083;DHT22;40978;52.850;6.506;2023-05-10T10:00:37;15.00;99.90
55083;DHT22;40978;52.850;6.506;2023-05-10T10:03:04;14.90;99.90
55083;DHT22;40978;52.850;6.506;2023-05-10T10:05:31;14.80;99.90
55083;DHT22;40978;52.850;6.506;2023-05-10T10:07:58;14.80;99.90
55083;DHT22;40978;52.850;6.506;2023-05-10T10:10:27;14.70;99.90
55083;DHT22;40978;52.850;6.506;2023-05-10T10:12:55;14.70;99.90
55083;DHT22;40978;52.850;6.506;2023-05-10T10:15:21;14.80;99.90
55083;DHT22;40978;52.850;6.506;2023-05-10T10:17:48;14.90;99.90
55083;DHT22;40978;52.850;6.506;2023-05-10T10:20:15;15.00;99.90
55083;DHT22;40978;52.850;6.506;2023-05-10T10:22:41;15.10;99.90
55083;DHT22;40978;52.850;6.506;2023-05-10T10:25:10;15.10;99.90
55083;DHT22;40978;52.850;6.506;2023-05-10T10:36:21;15.00;99.90
55083;DHT22;40978;52.850;6.506;2023-05-10T10:44:25;15.00;99.90
55083;DHT22;40978;52.850;6.506;2023-05-10T10:47:21;15.10;99.90
55083;DHT22;40978;52.850;6.506;2023-05-10T10:50:03;15.10;99.90
55083;DHT22;40978;52.850;6.506;2023-05-10T10:52:43;15.20;99.90
55083;DHT22;40978;52.850;6.506;2023-05-10T10:55:18;15.10;99.90
55083;DHT22;40978;52.850;6.506;2023-05-10T10:57:54;15.10;99.90
55083;DHT22;40978;52.850;6.506;2023-05-10T11:00:35;15.10;99.90
55083;DHT22;40978;52.850;6.506;2023-05-10T11:03:06;15.20;99.90
55083;DHT22;40978;52.850;6.506;2023-05-10T11:10:39;15.20;99.90
55083;DHT22;40978;52.850;6.506;2023-05-10T11:13:05;15.20;99.90
55083;DHT22;40978;52.850;6.506;2023-05-10T11:15:33;15.20;99.90
55083;DHT22;40978;52.850;6.506;2023-05-10T11:17:59;15.20;99.90
55083;DHT22;40978;52.850;6.506;2023-05-10T11:20:28;15.30;99.90
55083;DHT22;40978;52.850;6.506;2023-05-10T11:23:11;15.30;99.90
55083;DHT22;40978;52.850;6.506;2023-05-10T11:25:42;15.30;99.90
55083;DHT22;40978;52.850;6.506;2023-05-10T11:28:09;15.30;99.90
55083;DHT22;40978;52.850;6.506;2023-05-10T11:30:37;15.20;99.90
55083;DHT22;40978;52.850;6.506;2023-05-10T11:33:03;15.20;99.90
55083;DHT22;40978;52.850;6.506;2023-05-10T11:35:29;15.30;99.90
55083;DHT22;40978;52.850;6.506;2023-05-10T11:37:55;15.30;99.90
55083;DHT22;40978;52.850;6.506;2023-05-10T11:40:23;15.40;99.90
55083;DHT22;40978;52.850;6.506;2023-05-10T11:42:50;15.40;99.90
55083;DHT22;40978;52.850;6.506;2023-05-10T11:45:16;15.50;99.90
55083;DHT22;40978;52.850;6.506;2023-05-10T11:47:42;15.60;99.90
55083;DHT22;40978;52.850;6.506;2023-05-10T11:50:10;15.70;99.90
55083;DHT22;40978;52.850;6.506;2023-05-10T11:52:36;15.70;99.90
55083;DHT22;40978;52.850;6.506;2023-05-10T11:55:05;15.80;99.90
55083;DHT22;40978;52.850;6.506;2023-05-10T11:57:31;15.80;99.90
55083;DHT22;40978;52.850;6.506;2023-05-10T11:59:57;15.80;99.90
55083;DHT22;40978;52.850;6.506;2023-05-10T12:02:23;15.90;99.90
55083;DHT22;40978;52.850;6.506;2023-05-10T12:04:50;15.90;99.90
55083;DHT22;40978;52.850;6.506;2023-05-10T12:07:16;15.90;99.90
55083;DHT22;40978;52.850;6.506;2023-05-10T12:10:05;15.80;99.90
55083;DHT22;40978;52.850;6.506;2023-05-10T12:12:42;15.80;99.90
55083;DHT22;40978;52.850;6.506;2023-05-10T12:17:39;15.70;99.90
55083;DHT22;40978;52.850;6.506;2023-05-10T12:20:22;15.60;99.90
55083;DHT22;40978;52.850;6.506;2023-05-10T12:22:54;15.60;99.90
55083;DHT22;40978;52.850;6.506;2023-05-10T12:25:21;15.60;99.90
55083;DHT22;40978;52.850;6.506;2023-05-10T12:27:58;15.60;99.90
55083;DHT22;40978;52.850;6.506;2023-05-10T12:30:28;15.60;99.90
55083;DHT22;40978;52.850;6.506;2023-05-10T12:32:58;15.60;99.90
55083;DHT22;40978;52.850;6.506;2023-05-10T12:35:24;15.60;99.90
55083;DHT22;40978;52.850;6.506;2023-05-10T12:37:50;15.50;99.90
55083;DHT22;40978;52.850;6.506;2023-05-10T12:40:16;15.50;99.90
55083;DHT22;40978;52.850;6.506;2023-05-10T12:42:42;15.50;99.90
55083;DHT22;40978;52.850;6.506;2023-05-10T12:45:10;15.40;99.90
55083;DHT22;40978;52.850;6.506;2023-05-10T12:47:37;15.40;99.90
55083;DHT22;40978;52.850;6.506;2023-05-10T12:50:03;15.30;99.90
55083;DHT22;40978;52.850;6.506;2023-05-10T12:52:29;15.20;99.90
55083;DHT22;40978;52.850;6.506;2023-05-10T12:54:55;15.20;99.90
55083;DHT22;40978;52.850;6.506;2023-05-10T12:57:21;15.10;99.90
55083;DHT22;40978;52.850;6.506;2023-05-10T12:59:47;15.10;99.90
55083;DHT22;40978;52.850;6.506;2023-05-10T13:02:13;15.00;99.90
55083;DHT22;40978;52.850;6.506;2023-05-10T13:04:40;15.00;99.90
55083;DHT22;40978;52.850;6.506;2023-05-10T13:07:08;14.90;99.90
55083;DHT22;40978;52.850;6.506;2023-05-10T13:09:35;14.90;99.90
55083;DHT22;40978;52.850;6.506;2023-05-10T13:12:01;14.80;99.90
55083;DHT22;40978;52.850;6.506;2023-05-10T13:14:27;14.70;99.90
55083;DHT22;40978;52.850;6.506;2023-05-10T13:16:53;14.70;99.90
55083;DHT22;40978;52.850;6.506;2023-05-10T13:19:19;14.70;99.90
55083;DHT22;40978;52.850;6.506;2023-05-10T13:21:45;14.70;99.90
55083;DHT22;40978;52.850;6.506;2023-05-10T13:24:11;14.70;99.90
55083;DHT22;40978;52.850;6.506;2023-05-10T13:26:39;14.70;99.90
55083;DHT22;40978;52.850;6.506;2023-05-10T13:29:06;14.70;99.90
55083;DHT22;40978;52.850;6.506;2023-05-10T13:31:33;14.70;99.90
55083;DHT22;40978;52.850;6.506;2023-05-10T13:33:58;14.80;99.90
55083;DHT22;40978;52.850;6.506;2023-05-10T13:36:24;14.90;99.90
55083;DHT22;40978;52.850;6.506;2023-05-10T13:38:50;14.90;99.90
55083;DHT22;40978;52.850;6.506;2023-05-10T13:41:16;15.00;99.90
55083;DHT22;40978;52.850;6.506;2023-05-10T13:43:42;15.10;99.90
55083;DHT22;40978;52.850;6.506;2023-05-10T13:46:07;15.20;99.90
55083;DHT22;40978;52.850;6.506;2023-05-10T13:48:33;15.30;99.90
55083;DHT22;40978;52.850;6.506;2023-05-10T13:51:02;15.40;99.90
55083;DHT22;40978;52.850;6.506;2023-05-10T13:53:28;15.40;99.90
55083;DHT22;40978;52.850;6.506;2023-05-10T13:55:54;15.50;99.90
55083;DHT22;40978;52.850;6.506;2023-05-10T13:58:19;15.50;99.90
55083;DHT22;40978;52.850;6.506;2023-05-10T14:00:45;15.60;99.90
55083;DHT22;40978;52.850;6.506;2023-05-10T14:03:11;15.60;99.90
55083;DHT22;40978;52.850;6.506;2023-05-10T14:05:37;15.70;99.90
55083;DHT22;40978;52.850;6.506;2023-05-10T14:08:03;15.70;99.90
55083;DHT22;40978;52.850;6.506;2023-05-10T14:10:29;15.70;99.90
55083;DHT22;40978;52.850;6.506;2023-05-10T14:12:55;15.80;99.90
55083;DHT22;40978;52.850;6.506;2023-05-10T14:15:21;15.80;99.90
55083;DHT22;40978;52.850;6.506;2023-05-10T14:17:47;15.80;99.90
55083;DHT22;40978;52.850;6.506;2023-05-10T14:20:13;15.70;99.90
55083;DHT22;40978;52.850;6.506;2023-05-10T14:22:39;15.70;99.90
55083;DHT22;40978;52.850;6.506;2023-05-10T14:25:06;15.70;99.90
55083;DHT22;40978;52.850;6.506;2023-05-10T14:27:32;15.70;99.90
55083;DHT22;40978;52.850;6.506;2023-05-10T14:29:58;15.60;99.90
55083;DHT22;40978;52.850;6.506;2023-05-10T14:32:23;15.70;99.90
55083;DHT22;40978;52.850;6.506;2023-05-10T14:34:49;15.60;99.90
55083;DHT22;40978;52.850;6.506;2023-05-10T14:37:15;15.50;99.90
55083;DHT22;40978;52.850;6.506;2023-05-10T14:39:41;15.60;99.90
55083;DHT22;40978;52.850;6.506;2023-05-10T14:42:08;15.60;99.90
55083;DHT22;40978;52.850;6.506;2023-05-10T14:44:34;15.70;99.90
55083;DHT22;40978;52.850;6.506;2023-05-10T14:47:00;15.70;99.90
55083;DHT22;40978;52.850;6.506;2023-05-10T14:49:25;15.70;99.90
55083;DHT22;40978;52.850;6.506;2023-05-10T14:51:51;15.80;99.90
55083;DHT22;40978;52.850;6.506;2023-05-10T14:54:17;15.80;99.90
55083;DHT22;40978;52.850;6.506;2023-05-10T14:56:43;15.80;99.90
55083;DHT22;40978;52.850;6.506;2023-05-10T14:59:09;15.90;99.90
55083;DHT22;40978;52.850;6.506;2023-05-10T15:01:35;15.90;99.90
55083;DHT22;40978;52.850;6.506;2023-05-10T15:04:03;15.90;99.90
55083;DHT22;40978;52.850;6.506;2023-05-10T15:06:35;15.90;99.90
55083;DHT22;40978;52.850;6.506;2023-05-10T15:09:02;15.90;99.90
55083;DHT22;40978;52.850;6.506;2023-05-10T15:11:31;15.90;99.90
55083;DHT22;40978;52.850;6.506;2023-05-10T15:13:57;15.90;99.90
55083;DHT22;40978;52.850;6.506;2023-05-10T15:16:23;15.90;99.90
55083;DHT22;40978;52.850;6.506;2023-05-10T15:18:51;15.90;99.90
55083;DHT22;40978;52.850;6.506;2023-05-10T15:21:17;16.00;99.90
55083;DHT22;40978;52.850;6.506;2023-05-10T15:23:43;15.90;99.90
55083;DHT22;40978;52.850;6.506;2023-05-10T15:26:08;16.00;99.90
55083;DHT22;40978;52.850;6.506;2023-05-10T15:28:34;16.00;99.90
55083;DHT22;40978;52.850;6.506;2023-05-10T15:31:00;16.00;99.90
55083;DHT22;40978;52.850;6.506;2023-05-10T15:33:26;16.00;99.90
55083;DHT22;40978;52.850;6.506;2023-05-10T15:35:53;16.10;99.90
55083;DHT22;40978;52.850;6.506;2023-05-10T15:38:19;16.10;99.90
55083;DHT22;40978;52.850;6.506;2023-05-10T15:40:45;16.10;99.90
55083;DHT22;40978;52.850;6.506;2023-05-10T15:43:10;16.10;99.90
55083;DHT22;40978;52.850;6.506;2023-05-10T15:45:36;16.00;99.90
55083;DHT22;40978;52.850;6.506;2023-05-10T15:48:02;16.00;99.90
55083;DHT22;40978;52.850;6.506;2023-05-10T15:50:28;16.00;99.90
55083;DHT22;40978;52.850;6.506;2023-05-10T15:52:54;16.00;99.90
55083;DHT22;40978;52.850;6.506;2023-05-10T15:55:20;16.00;99.90
55083;DHT22;40978;52.850;6.506;2023-05-10T15:57:45;15.90;99.90
55083;DHT22;40978;52.850;6.506;2023-05-10T16:00:12;15.90;99.90
55083;DHT22;40978;52.850;6.506;2023-05-10T16:02:41;15.90;99.90
55083;DHT22;40978;52.850;6.506;2023-05-10T16:05:08;15.90;99.90
55083;DHT22;40978;52.850;6.506;2023-05-10T16:07:34;15.80;99.90
55083;DHT22;40978;52.850;6.506;2023-05-10T16:10:00;15.70;99.90
55083;DHT22;40978;52.850;6.506;2023-05-10T16:12:31;15.70;99.90